Time;durP1;ratioP1;P1;durP2;ratioP2;P2;SDS_P1;SDS_P2;PMS_P1;PMS_P2;Temp;Humidity;BMP_temperature;BMP_pressure;BME280_temperature;BME280_humidity;BME280_pressure;Samples;Min_cycle;Max_cycle;Signal;HPM_P1;HPM_P2
2021/04/27 00:01:32;;;;;;;7.67;4.53;;;10.20;88.90;;;;;;5092958;28;20183;-70
2021/04/27 00:03:58;;;;;;;7.57;4.53;;;10.20;89.10;;;;;;5092855;28;20284;-70
2021/04/27 00:06:24;;;;;;;6.40;4.40;;;10.20;88.90;;;;;;5092524;28;20207;-70
2021/04/27 00:08:50;;;;;;;5.10;4.60;;;10.10;89.30;;;;;;5092602;28;20187;-70
2021/04/27 00:11:16;;;;;;;7.50;4.77;;;10.10;88.30;;;;;;5092728;28;20198;-69
2021/04/27 00:13:42;;;;;;;5.00;4.57;;;10.10;88.00;;;;;;5092858;28;20182;-70
2021/04/27 00:16:09;;;;;;;5.90;4.73;;;10.10;87.50;;;;;;5073900;28;20206;-70
2021/04/27 00:18:35;;;;;;;6.50;4.67;;;10.00;87.90;;;;;;5092970;28;20187;-70
2021/04/27 00:21:01;;;;;;;7.77;4.40;;;10.10;89.80;;;;;;5057889;28;20191;-70
2021/04/27 00:23:27;;;;;;;4.97;4.47;;;10.00;89.70;;;;;;5092561;28;20203;-70
2021/04/27 00:25:53;;;;;;;4.73;4.23;;;10.10;88.00;;;;;;5092630;28;20199;-70
2021/04/27 00:28:18;;;;;;;5.30;4.80;;;10.00;90.10;;;;;;5092547;28;20179;-70
2021/04/27 00:30:44;;;;;;;5.50;4.47;;;9.90;90.00;;;;;;5087487;28;20229;-68
2021/04/27 00:33:10;;;;;;;5.30;4.53;;;10.00;90.50;;;;;;5106665;28;20648;-70
2021/04/27 00:35:36;;;;;;;4.63;4.13;;;9.90;88.00;;;;;;5112708;28;21091;-70
2021/04/27 00:38:02;;;;;;;4.57;4.17;;;9.90;88.10;;;;;;5112947;28;20665;-70
2021/04/27 00:40:31;;;;;;;5.20;4.37;;;9.90;89.30;;;;;;5113088;28;20210;-70
2021/04/27 00:42:57;;;;;;;6.00;4.03;;;9.90;87.90;;;;;;5112801;28;20611;-70
2021/04/27 00:45:25;;;;;;;5.57;4.47;;;9.80;88.60;;;;;;5112751;28;20180;-70
2021/04/27 00:47:52;;;;;;;6.93;4.33;;;9.90;88.10;;;;;;5103865;28;20649;-70
2021/04/27 00:50:25;;;;;;;6.10;4.50;;;9.70;88.30;;;;;;5112741;28;20539;-70
2021/04/27 00:52:52;;;;;;;6.57;4.50;;;9.60;88.20;;;;;;5112804;28;20183;-69
2021/04/27 00:55:18;;;;;;;5.63;3.93;;;9.60;88.20;;;;;;5112638;28;20665;-70
2021/04/27 00:57:44;;;;;;;5.30;4.33;;;9.50;88.70;;;;;;5094478;28;20179;-70
2021/04/27 01:00:15;;;;;;;5.90;4.37;;;9.50;90.20;;;;;;5112735;28;20183;-70
2021/04/27 01:02:40;;;;;;;6.73;4.03;;;9.60;89.10;;;;;;5112637;28;20341;-70
2021/04/27 01:05:12;;;;;;;6.23;4.03;;;9.60;89.80;;;;;;5112711;28;20262;-70
2021/04/27 01:07:47;;;;;;;5.33;4.30;;;9.60;88.50;;;;;;5112536;28;20278;-70
2021/04/27 01:10:13;;;;;;;4.40;4.00;;;9.50;88.70;;;;;;5112773;28;20167;-70
2021/04/27 01:12:47;;;;;;;5.17;4.17;;;9.40;88.80;;;;;;5112729;28;20197;-70
2021/04/27 01:15:22;;;;;;;4.40;3.97;;;9.40;89.10;;;;;;5112604;28;20179;-70
2021/04/27 01:17:49;;;;;;;4.53;4.03;;;9.30;89.30;;;;;;5112438;28;20178;-70
2021/04/27 01:20:19;;;;;;;9.37;4.40;;;9.30;89.40;;;;;;5107681;28;20256;-69
2021/04/27 01:23:08;;;;;;;4.67;4.27;;;9.30;89.60;;;;;;5105563;28;20205;-70
2021/04/27 01:25:45;;;;;;;5.77;3.93;;;9.20;90.40;;;;;;5112396;28;20179;-70
2021/04/27 01:28:12;;;;;;;5.50;4.17;;;9.20;89.50;;;;;;5116091;28;20166;-70
2021/04/27 01:30:40;;;;;;;5.20;3.67;;;9.30;90.40;;;;;;5112827;28;20649;-70
2021/04/27 01:33:08;;;;;;;5.90;4.43;;;9.30;90.10;;;;;;5095826;28;20195;-70
2021/04/27 01:35:36;;;;;;;7.63;4.57;;;9.30;90.20;;;;;;5095583;28;20547;-70
2021/04/27 01:38:03;;;;;;;4.57;4.00;;;9.20;89.50;;;;;;5092284;28;20195;-69
2021/04/27 01:40:29;;;;;;;7.43;4.30;;;9.20;89.60;;;;;;5092045;28;20257;-70
2021/04/27 01:42:56;;;;;;;5.33;4.07;;;9.20;90.10;;;;;;5113730;28;20197;-69
2021/04/27 01:45:22;;;;;;;5.33;4.33;;;9.20;90.40;;;;;;5113572;28;20248;-70
2021/04/27 01:47:48;;;;;;;6.17;4.20;;;9.20;90.00;;;;;;5083604;28;20181;-69
2021/04/27 01:50:14;;;;;;;4.97;4.53;;;9.20;90.90;;;;;;5095164;28;20187;-70
2021/04/27 01:52:40;;;;;;;4.73;4.23;;;9.20;89.80;;;;;;5076988;28;20217;-70
2021/04/27 01:55:07;;;;;;;8.50;4.47;;;9.10;89.80;;;;;;5094369;28;20174;-70
2021/04/27 01:57:34;;;;;;;5.20;4.07;;;9.10;90.10;;;;;;5094899;28;20190;-70
2021/04/27 02:00:00;;;;;;;5.47;4.00;;;9.10;90.10;;;;;;5094440;28;20187;-70
2021/04/27 02:02:25;;;;;;;4.40;4.00;;;8.90;90.40;;;;;;5094476;28;20592;-69
2021/04/27 02:04:51;;;;;;;4.43;3.73;;;9.00;90.90;;;;;;5094279;28;20686;-70
2021/04/27 02:07:17;;;;;;;5.40;4.03;;;9.00;90.30;;;;;;5094679;28;20212;-70
2021/04/27 02:09:43;;;;;;;4.63;4.23;;;9.00;90.30;;;;;;5095106;28;20187;-70
2021/04/27 02:12:09;;;;;;;5.57;4.30;;;9.00;90.80;;;;;;5073824;28;20189;-69
2021/04/27 02:14:35;;;;;;;4.60;4.20;;;8.90;90.30;;;;;;5094328;28;20188;-70
2021/04/27 02:17:16;;;;;;;4.73;4.17;;;8.80;90.70;;;;;;5094282;28;20194;-70
2021/04/27 02:19:44;;;;;;;6.20;4.33;;;8.80;90.90;;;;;;5094392;28;20257;-70
2021/04/27 02:22:10;;;;;;;4.67;3.87;;;8.80;90.90;;;;;;5094339;28;20927;-70
2021/04/27 02:24:38;;;;;;;6.80;4.40;;;8.80;90.80;;;;;;5094061;28;20268;-70
2021/04/27 02:27:06;;;;;;;4.80;4.10;;;8.70;90.90;;;;;;5094144;28;20194;-70
2021/04/27 02:29:35;;;;;;;6.30;4.30;;;8.70;91.10;;;;;;5093565;28;20555;-70
2021/04/27 02:32:01;;;;;;;4.50;4.10;;;8.60;90.90;;;;;;5075731;28;20177;-70
2021/04/27 02:34:28;;;;;;;5.97;4.27;;;8.70;91.20;;;;;;5094019;28;20277;-70
2021/04/27 02:36:55;;;;;;;5.37;4.40;;;8.60;90.80;;;;;;5093571;28;20279;-70
2021/04/27 02:39:21;;;;;;;5.13;3.90;;;8.60;91.30;;;;;;5093321;28;20181;-70
2021/04/27 02:41:48;;;;;;;4.50;4.10;;;8.70;91.00;;;;;;5093658;28;20196;-70
2021/04/27 02:44:14;;;;;;;4.60;3.90;;;8.70;91.10;;;;;;5083586;28;20200;-70
2021/04/27 02:46:43;;;;;;;5.23;4.17;;;8.70;91.20;;;;;;5093664;28;20198;-70
2021/04/27 02:49:10;;;;;;;4.50;4.10;;;8.70;91.40;;;;;;5093652;28;20179;-70
2021/04/27 02:51:36;;;;;;;4.23;3.83;;;8.70;91.80;;;;;;5093888;28;20233;-70
2021/04/27 02:54:02;;;;;;;5.13;3.80;;;8.70;91.30;;;;;;5075696;28;20726;-70
2021/04/27 02:56:27;;;;;;;4.77;4.00;;;8.60;91.10;;;;;;5075255;28;20201;-69
2021/04/27 02:58:54;;;;;;;8.30;4.30;;;8.60;91.20;;;;;;5119963;22;20249;-68
2021/04/27 03:01:19;;;;;;;5.17;4.20;;;8.40;91.10;;;;;;5088851;28;20197;-71
2021/04/27 03:03:45;;;;;;;4.70;4.13;;;8.50;91.80;;;;;;5093582;28;20204;-71
2021/04/27 03:06:11;;;;;;;6.07;3.93;;;8.50;91.60;;;;;;5094011;28;20631;-71
2021/04/27 03:08:37;;;;;;;5.57;3.83;;;8.40;91.30;;;;;;5093978;28;20659;-71
2021/04/27 03:11:02;;;;;;;5.13;3.80;;;8.40;91.40;;;;;;5093786;28;20190;-71
2021/04/27 03:13:28;;;;;;;4.50;4.10;;;8.40;91.30;;;;;;5093834;28;20619;-71
2021/04/27 03:15:55;;;;;;;4.20;3.80;;;8.30;91.30;;;;;;5092865;28;20541;-70
2021/04/27 03:18:21;;;;;;;6.67;4.73;;;8.30;91.40;;;;;;5092430;28;20185;-70
2021/04/27 03:20:47;;;;;;;4.60;4.20;;;8.30;91.80;;;;;;5093430;28;20665;-71
2021/04/27 03:23:13;;;;;;;4.47;3.90;;;8.20;91.40;;;;;;5093610;28;20258;-71
2021/04/27 03:25:39;;;;;;;5.73;3.93;;;8.30;92.10;;;;;;5088969;28;20209;-71
2021/04/27 03:28:06;;;;;;;6.60;3.50;;;8.20;91.60;;;;;;5093559;28;20266;-71
2021/04/27 03:30:32;;;;;;;4.27;3.87;;;8.20;91.60;;;;;;5093453;28;20540;-70
2021/04/27 03:32:58;;;;;;;5.67;4.00;;;8.20;91.90;;;;;;5093496;28;20184;-71
2021/04/27 03:35:24;;;;;;;5.63;4.30;;;8.30;92.30;;;;;;5092153;28;20582;-71
2021/04/27 03:37:50;;;;;;;4.27;3.80;;;8.20;92.80;;;;;;5092216;28;20182;-70
2021/04/27 03:40:16;;;;;;;4.93;3.67;;;8.20;92.30;;;;;;5093245;28;20695;-71
2021/04/27 03:42:41;;;;;;;6.00;3.80;;;8.20;92.30;;;;;;5088968;28;20209;-71
2021/04/27 03:45:12;;;;;;;4.30;3.70;;;8.00;92.70;;;;;;5093174;28;20178;-71
2021/04/27 03:47:38;;;;;;;4.23;3.77;;;8.00;92.80;;;;;;5094204;28;20180;-71
2021/04/27 03:50:06;;;;;;;4.90;3.40;;;8.00;93.30;;;;;;5093034;28;20198;-70
2021/04/27 03:52:32;;;;;;;4.33;3.93;;;8.00;92.30;;;;;;5089136;28;20226;-71
2021/04/27 03:54:58;;;;;;;4.63;4.17;;;8.10;92.00;;;;;;5080275;28;20259;-70
2021/04/27 03:57:25;;;;;;;4.23;3.80;;;8.10;92.20;;;;;;5079199;28;20164;-70
2021/04/27 03:59:50;;;;;;;4.60;3.90;;;8.00;92.50;;;;;;5073054;28;20219;-70
2021/04/27 04:02:16;;;;;;;5.63;4.10;;;8.10;91.70;;;;;;5079080;28;20252;-71
2021/04/27 04:04:42;;;;;;;7.33;3.83;;;8.10;92.80;;;;;;5081080;28;20209;-70
2021/04/27 04:07:08;;;;;;;4.20;3.80;;;8.00;92.00;;;;;;5091366;28;20202;-70
2021/04/27 04:09:34;;;;;;;5.47;3.83;;;8.00;92.40;;;;;;5091913;28;20241;-71
2021/04/27 04:12:01;;;;;;;5.27;4.37;;;7.90;92.60;;;;;;5090564;28;20230;-70
2021/04/27 04:14:27;;;;;;;5.23;4.30;;;7.90;91.90;;;;;;5093283;28;20210;-70
2021/04/27 04:16:53;;;;;;;4.53;3.60;;;7.90;92.20;;;;;;5085453;28;20183;-70
2021/04/27 04:19:18;;;;;;;4.23;3.83;;;7.90;92.80;;;;;;5073457;28;20213;-69
2021/04/27 04:21:45;;;;;;;3.87;3.57;;;7.90;91.90;;;;;;5075431;28;20178;-71
2021/04/27 04:24:12;;;;;;;4.20;3.77;;;7.90;92.40;;;;;;5075558;28;20184;-71
2021/04/27 04:26:38;;;;;;;4.00;3.40;;;7.90;92.00;;;;;;5078581;28;20195;-70
2021/04/27 04:29:05;;;;;;;3.83;3.53;;;7.90;92.00;;;;;;5089269;28;20687;-71
2021/04/27 04:31:31;;;;;;;3.67;3.37;;;7.80;91.70;;;;;;5093273;28;20185;-71
2021/04/27 04:33:57;;;;;;;6.50;3.93;;;7.70;93.60;;;;;;5087459;28;20212;-70
2021/04/27 04:36:24;;;;;;;3.90;3.50;;;7.40;92.00;;;;;;5079738;28;20300;-70
2021/04/27 04:38:51;;;;;;;6.40;3.50;;;7.40;92.10;;;;;;5092073;28;20173;-70
2021/04/27 04:41:17;;;;;;;3.83;3.17;;;7.40;92.10;;;;;;5092413;28;20193;-71
2021/04/27 04:43:42;;;;;;;3.53;3.20;;;7.40;92.20;;;;;;5088836;28;20244;-71
2021/04/27 04:46:08;;;;;;;7.53;3.53;;;7.50;92.80;;;;;;5073249;28;20183;-70
2021/04/27 04:48:34;;;;;;;3.40;3.10;;;7.40;92.20;;;;;;5087901;28;20556;-71
2021/04/27 04:50:59;;;;;;;5.87;3.80;;;7.50;92.10;;;;;;5092507;28;20200;-70
2021/04/27 04:53:25;;;;;;;7.03;3.30;;;7.40;92.20;;;;;;5092800;28;20740;-71
2021/04/27 04:55:51;;;;;;;7.50;3.30;;;7.40;92.00;;;;;;5080449;28;20204;-71
2021/04/27 04:58:18;;;;;;;3.97;3.33;;;7.40;92.10;;;;;;5093256;28;20177;-77
2021/04/27 05:00:43;;;;;;;4.93;3.23;;;7.50;92.50;;;;;;5095305;28;20217;-77
2021/04/27 05:03:09;;;;;;;3.60;3.30;;;7.60;92.30;;;;;;5105922;28;20604;-77
2021/04/27 05:05:35;;;;;;;6.03;3.50;;;7.50;92.20;;;;;;5095861;28;20661;-77
2021/04/27 05:08:16;;;;;;;3.60;3.23;;;7.50;92.10;;;;;;5095734;28;20206;-77
2021/04/27 05:10:42;;;;;;;3.93;3.60;;;7.40;92.00;;;;;;5097063;28;20288;-77
2021/04/27 05:13:08;;;;;;;3.87;3.03;;;7.50;92.50;;;;;;5095668;28;20623;-77
2021/04/27 05:15:34;;;;;;;3.27;2.97;;;7.50;92.50;;;;;;5095828;28;20178;-77
2021/04/27 05:18:01;;;;;;;5.23;3.40;;;7.60;92.50;;;;;;5097136;28;20181;-77
2021/04/27 05:20:27;;;;;;;3.90;3.50;;;7.50;92.10;;;;;;5095526;28;20207;-77
2021/04/27 05:22:52;;;;;;;3.20;2.90;;;7.60;92.50;;;;;;5091324;28;20702;-77
2021/04/27 05:25:19;;;;;;;5.03;3.47;;;7.70;93.00;;;;;;5101499;28;20176;-77
2021/04/27 05:27:45;;;;;;;6.47;3.13;;;7.70;92.10;;;;;;5105303;28;20735;-77
2021/04/27 05:30:11;;;;;;;3.93;3.23;;;7.80;92.10;;;;;;5097460;28;20205;-77
2021/04/27 05:32:38;;;;;;;3.60;3.30;;;7.80;92.30;;;;;;5096390;28;20234;-77
2021/04/27 05:35:06;;;;;;;5.90;3.73;;;7.80;93.00;;;;;;5097190;28;20178;-77
2021/04/27 05:37:33;;;;;;;5.80;4.00;;;7.80;92.00;;;;;;5107293;28;20232;-77
2021/04/27 05:39:58;;;;;;;8.93;3.20;;;7.80;92.50;;;;;;5110784;28;20188;-77
2021/04/27 05:42:24;;;;;;;5.70;3.20;;;7.90;92.70;;;;;;5096446;28;20194;-76
2021/04/27 05:44:50;;;;;;;3.93;3.10;;;8.00;92.10;;;;;;5096702;28;20278;-77
2021/04/27 05:47:16;;;;;;;4.93;3.70;;;8.00;92.50;;;;;;5097405;28;20682;-77
2021/04/27 05:49:41;;;;;;;5.53;3.50;;;8.10;92.50;;;;;;5098255;28;20226;-77
2021/04/27 05:52:07;;;;;;;3.37;3.07;;;8.10;92.00;;;;;;5097509;28;20554;-78
2021/04/27 05:54:34;;;;;;;4.57;3.40;;;8.00;91.90;;;;;;5091539;28;20577;-76
2021/04/27 05:57:00;;;;;;;3.87;3.53;;;8.00;92.10;;;;;;5105432;28;20264;-77
2021/04/27 05:59:25;;;;;;;4.23;3.53;;;8.10;92.30;;;;;;5105000;28;20567;-77
2021/04/27 06:01:51;;;;;;;4.37;3.70;;;8.20;92.30;;;;;;5106196;28;20183;-77
2021/04/27 06:04:17;;;;;;;5.70;3.30;;;8.30;92.10;;;;;;5097099;28;20175;-77
2021/04/27 06:06:43;;;;;;;4.43;3.60;;;8.30;92.30;;;;;;5097421;28;20174;-77
2021/04/27 06:09:09;;;;;;;4.20;3.80;;;8.30;91.80;;;;;;5098226;28;20206;-77
2021/04/27 06:11:36;;;;;;;4.13;3.47;;;8.40;92.00;;;;;;5096842;28;20175;-78
2021/04/27 06:14:02;;;;;;;5.27;3.73;;;8.40;91.80;;;;;;5096812;28;20222;-77
2021/04/27 06:16:28;;;;;;;5.13;3.90;;;8.50;91.90;;;;;;5098704;28;20174;-78
2021/04/27 06:18:54;;;;;;;4.07;3.53;;;8.50;92.10;;;;;;5098051;28;20179;-77
2021/04/27 06:21:20;;;;;;;3.87;3.27;;;8.60;92.10;;;;;;5098172;28;20174;-78
2021/04/27 06:23:46;;;;;;;5.93;3.37;;;8.60;92.20;;;;;;5105253;28;20182;-78
2021/04/27 06:26:12;;;;;;;4.30;3.90;;;8.70;91.80;;;;;;5105211;28;20236;-78
2021/04/27 06:28:38;;;;;;;6.27;3.70;;;8.70;92.40;;;;;;5097182;28;20183;-77
2021/04/27 06:31:04;;;;;;;5.73;4.03;;;8.80;91.90;;;;;;5091934;28;20230;-77
2021/04/27 06:33:30;;;;;;;4.20;3.90;;;8.90;91.80;;;;;;5095951;28;20197;-77
2021/04/27 06:35:55;;;;;;;5.03;3.60;;;8.80;91.80;;;;;;5094941;28;20195;-76
2021/04/27 06:38:21;;;;;;;6.20;3.90;;;8.90;92.40;;;;;;5096602;28;20707;-77
2021/04/27 06:40:50;;;;;;;3.73;3.40;;;9.00;91.90;;;;;;5096203;28;20198;-77
2021/04/27 06:43:16;;;;;;;5.57;3.90;;;9.10;92.10;;;;;;5093574;28;20182;-77
2021/04/27 06:45:42;;;;;;;4.57;3.97;;;9.00;91.80;;;;;;5110364;28;20253;-77
2021/04/27 06:48:08;;;;;;;6.40;4.23;;;9.10;92.40;;;;;;5097396;28;20211;-78
2021/04/27 06:50:36;;;;;;;6.20;3.97;;;9.20;92.20;;;;;;5097459;28;20768;-78
2021/04/27 06:53:03;;;;;;;4.03;3.63;;;9.30;92.10;;;;;;5098116;28;20289;-78
2021/04/27 06:55:29;;;;;;;4.83;4.00;;;9.50;92.30;;;;;;5097312;28;20180;-77
2021/04/27 06:58:01;;;;;;;6.80;3.80;;;9.40;91.80;;;;;;5105395;28;20171;-79
2021/04/27 07:00:27;;;;;;;5.70;4.03;;;9.50;91.70;;;;;;5102403;28;20689;-77
2021/04/27 07:02:53;;;;;;;7.70;4.20;;;9.60;91.80;;;;;;5095897;28;20179;-77
2021/04/27 07:05:19;;;;;;;6.20;3.93;;;9.70;91.70;;;;;;5097017;28;20173;-77
2021/04/27 07:07:44;;;;;;;7.40;3.70;;;9.80;91.70;;;;;;5096902;28;20184;-78
2021/04/27 07:10:11;;;;;;;7.70;4.17;;;9.70;92.00;;;;;;5096324;28;20202;-79
2021/04/27 07:12:37;;;;;;;6.20;4.20;;;9.80;91.40;;;;;;5094554;28;20656;-77
2021/04/27 07:15:03;;;;;;;8.17;4.13;;;9.80;91.80;;;;;;5096355;28;20186;-77
2021/04/27 07:17:29;;;;;;;11.57;4.30;;;9.90;92.10;;;;;;5110186;28;20174;-77
2021/04/27 07:19:56;;;;;;;6.23;4.90;;;10.00;92.20;;;;;;5096011;28;20267;-76
2021/04/27 07:22:22;;;;;;;4.33;3.93;;;10.10;91.70;;;;;;5094723;28;20175;-77
2021/04/27 07:24:48;;;;;;;5.60;4.20;;;10.10;91.40;;;;;;5095434;28;20256;-77
2021/04/27 07:27:14;;;;;;;4.73;4.23;;;10.10;91.10;;;;;;5095317;28;20194;-77
2021/04/27 07:29:39;;;;;;;6.20;4.27;;;10.20;91.70;;;;;;5092185;28;20205;-77
2021/04/27 07:32:05;;;;;;;4.80;4.30;;;10.10;91.30;;;;;;5093640;28;20176;-77
2021/04/27 07:34:31;;;;;;;5.23;4.60;;;10.20;91.60;;;;;;5093998;28;20196;-77
2021/04/27 07:36:57;;;;;;;7.93;4.57;;;10.20;91.30;;;;;;5093417;28;20176;-77
2021/04/27 07:39:22;;;;;;;5.43;4.57;;;10.30;91.80;;;;;;5094965;28;20218;-77
2021/04/27 07:41:48;;;;;;;5.87;4.80;;;10.30;91.70;;;;;;5094840;28;20542;-77
2021/04/27 07:44:14;;;;;;;6.67;4.80;;;10.40;91.40;;;;;;5076731;28;20705;-77
2021/04/27 07:46:39;;;;;;;8.53;4.83;;;10.50;91.00;;;;;;5095143;28;20192;-78
2021/04/27 07:49:05;;;;;;;7.20;5.00;;;10.60;90.50;;;;;;5093236;28;20234;-76
2021/04/27 07:51:32;;;;;;;6.80;4.67;;;10.70;91.00;;;;;;5094973;28;20182;-77
2021/04/27 07:53:58;;;;;;;5.27;4.70;;;10.90;91.30;;;;;;5092786;28;20200;-77
2021/04/27 07:56:25;;;;;;;7.00;4.90;;;11.00;90.40;;;;;;5082569;28;20176;-77
2021/04/27 07:58:51;;;;;;;8.43;4.90;;;11.10;90.30;;;;;;5094597;28;20172;-78
2021/04/27 08:01:17;;;;;;;8.47;5.17;;;11.10;90.70;;;;;;5101359;28;20305;-77
2021/04/27 08:03:42;;;;;;;6.60;5.07;;;11.20;91.70;;;;;;5099766;28;20635;-78
2021/04/27 08:06:08;;;;;;;6.97;4.63;;;11.30;89.00;;;;;;5094731;28;20198;-77
2021/04/27 08:08:34;;;;;;;5.47;4.97;;;11.50;89.00;;;;;;5093191;28;20181;-77
2021/04/27 08:11:00;;;;;;;6.07;5.40;;;11.50;89.50;;;;;;5093168;28;20196;-77
2021/04/27 08:13:26;;;;;;;5.90;5.00;;;11.60;89.50;;;;;;5093507;28;20192;-77
2021/04/27 08:15:52;;;;;;;6.50;4.70;;;11.60;89.00;;;;;;5108921;28;20669;-78
2021/04/27 08:18:17;;;;;;;6.17;4.90;;;11.70;88.80;;;;;;5093547;28;20176;-77
2021/04/27 08:20:43;;;;;;;5.57;4.70;;;11.70;89.00;;;;;;5094397;28;20192;-77
2021/04/27 08:23:09;;;;;;;6.33;5.13;;;11.80;88.40;;;;;;5094829;28;20177;-78
2021/04/27 08:25:35;;;;;;;16.00;5.10;;;11.80;90.50;;;;;;5095998;28;20629;-77
2021/04/27 08:28:00;;;;;;;6.53;5.10;;;12.00;89.70;;;;;;5094919;28;20550;-77
2021/04/27 08:30:26;;;;;;;8.47;5.20;;;12.00;91.30;;;;;;5094474;28;20289;-76
2021/04/27 08:32:53;;;;;;;5.83;5.33;;;12.20;87.40;;;;;;5106682;28;20553;-77
2021/04/27 08:35:19;;;;;;;7.00;5.27;;;12.20;87.80;;;;;;5095537;28;20184;-77
2021/04/27 08:37:45;;;;;;;5.97;5.27;;;12.30;87.80;;;;;;5094360;28;20631;-77
2021/04/27 08:40:13;;;;;;;6.33;5.60;;;12.40;86.60;;;;;;5095475;28;20199;-77
2021/04/27 08:42:40;;;;;;;6.60;5.83;;;12.40;86.60;;;;;;5095556;28;20215;-78
2021/04/27 08:45:10;;;;;;;6.20;5.57;;;12.50;87.20;;;;;;5095157;28;20225;-78
2021/04/27 08:47:36;;;;;;;6.77;5.40;;;12.50;86.60;;;;;;5095571;28;20172;-78
2021/04/27 08:50:04;;;;;;;8.47;5.90;;;12.60;86.70;;;;;;5093719;28;20200;-78
2021/04/27 08:52:30;;;;;;;6.77;6.07;;;12.70;87.60;;;;;;5093982;28;20335;-77
2021/04/27 08:54:55;;;;;;;6.03;5.47;;;12.70;86.70;;;;;;5085443;28;20232;-77
2021/04/27 08:57:21;;;;;;;6.67;5.50;;;12.80;88.30;;;;;;5106692;28;20656;-78
2021/04/27 08:59:46;;;;;;;7.43;5.63;;;12.80;87.20;;;;;;5121068;22;20245;-79
2021/04/27 09:02:12;;;;;;;6.53;5.87;;;12.80;87.10;;;;;;5092565;28;20196;-82
2021/04/27 09:04:47;;;;;;;5.90;5.40;;;13.00;86.60;;;;;;5097593;28;20642;-82
2021/04/27 09:07:15;;;;;;;9.87;6.67;;;13.00;87.30;;;;;;5084303;28;20291;-82
2021/04/27 09:09:44;;;;;;;6.00;5.50;;;13.10;86.70;;;;;;5079021;28;20208;-82
2021/04/27 09:12:11;;;;;;;6.53;5.93;;;13.10;86.70;;;;;;5058387;28;20177;-82
2021/04/27 09:14:39;;;;;;;9.53;6.30;;;13.20;86.80;;;;;;5057983;28;20197;-82
2021/04/27 09:17:07;;;;;;;11.00;6.53;;;13.30;86.60;;;;;;5076006;28;20265;-82
2021/04/27 09:19:41;;;;;;;6.90;6.17;;;13.50;87.00;;;;;;5076637;28;20203;-82
2021/04/27 09:22:28;;;;;;;6.00;5.50;;;13.60;87.20;;;;;;5075559;28;20216;-82
2021/04/27 09:25:00;;;;;;;8.27;6.47;;;13.80;86.50;;;;;;5075751;28;20222;-80
2021/04/27 09:27:31;;;;;;;7.70;6.43;;;13.90;86.10;;;;;;5076111;28;20177;-82
2021/04/27 09:30:19;;;;;;;7.80;6.37;;;14.00;86.70;;;;;;5057432;28;20165;-82
2021/04/27 09:33:01;;;;;;;6.90;5.97;;;14.20;86.80;;;;;;5076011;28;20677;-82
2021/04/27 09:35:39;;;;;;;12.43;7.10;;;14.30;86.50;;;;;;5076099;28;20623;-82
2021/04/27 09:38:15;;;;;;;11.00;6.43;;;14.40;89.90;;;;;;5058100;28;20177;-82
2021/04/27 09:40:54;;;;;;;7.40;6.57;;;14.40;85.80;;;;;;5066999;28;20197;-82
2021/04/27 09:43:27;;;;;;;7.03;6.33;;;14.40;86.70;;;;;;5075497;28;20165;-81
2021/04/27 09:45:55;;;;;;;7.10;6.40;;;14.70;85.70;;;;;;5076362;28;20177;-82
2021/04/27 09:48:32;;;;;;;8.40;6.33;;;14.80;84.70;;;;;;5076622;28;20255;-83
2021/04/27 09:51:13;;;;;;;7.33;6.57;;;14.80;85.90;;;;;;5060693;28;20196;-82
2021/04/27 09:53:43;;;;;;;8.10;6.50;;;15.00;84.30;;;;;;5078399;28;20213;-81
2021/04/27 09:56:10;;;;;;;6.77;6.17;;;15.00;84.40;;;;;;5060139;28;20184;-82
2021/04/27 09:58:36;;;;;;;7.63;6.83;;;15.00;84.30;;;;;;5078257;28;20207;-82
2021/04/27 10:01:05;;;;;;;8.97;7.27;;;15.10;85.60;;;;;;5059971;28;20205;-82
2021/04/27 10:03:30;;;;;;;8.63;7.27;;;15.10;85.10;;;;;;5078356;28;20646;-82
2021/04/27 10:05:57;;;;;;;8.20;6.63;;;15.30;84.60;;;;;;5060516;28;20240;-81
2021/04/27 10:08:24;;;;;;;8.70;7.53;;;15.40;85.50;;;;;;5078608;28;20510;-82
2021/04/27 10:10:50;;;;;;;9.57;6.77;;;15.50;85.20;;;;;;5059561;28;20743;-81
2021/04/27 10:13:16;;;;;;;7.07;6.37;;;15.70;84.40;;;;;;5060011;28;20236;-82
2021/04/27 10:15:42;;;;;;;8.23;7.43;;;15.60;84.30;;;;;;5078005;28;20203;-82
2021/04/27 10:18:09;;;;;;;8.27;6.83;;;15.50;83.70;;;;;;5077700;28;20177;-83
2021/04/27 10:20:35;;;;;;;8.93;7.00;;;15.50;84.30;;;;;;5059901;28;20189;-83
2021/04/27 10:23:05;;;;;;;10.23;6.73;;;15.40;84.70;;;;;;5059597;28;20322;-83
2021/04/27 10:25:32;;;;;;;10.17;6.80;;;15.50;84.80;;;;;;5059859;28;20586;-83
2021/04/27 10:28:09;;;;;;;9.10;7.07;;;15.70;84.90;;;;;;5077893;28;20234;-83
2021/04/27 10:30:42;;;;;;;8.70;7.53;;;15.60;84.70;;;;;;5077468;28;20196;-83
2021/04/27 10:33:11;;;;;;;7.40;6.70;;;15.70;85.00;;;;;;5059432;28;20272;-83
2021/04/27 10:35:43;;;;;;;9.87;7.63;;;15.80;85.30;;;;;;5059665;28;20173;-83
2021/04/27 10:38:18;;;;;;;8.93;7.20;;;16.00;84.10;;;;;;5077456;28;20177;-81
2021/04/27 10:40:58;;;;;;;8.77;7.17;;;16.10;84.60;;;;;;5077221;28;20227;-83
2021/04/27 10:43:26;;;;;;;8.30;7.50;;;16.20;83.80;;;;;;5077580;28;20181;-83
2021/04/27 10:46:21;;;;;;;9.10;7.23;;;16.30;84.30;;;;;;5076562;28;20205;-83
2021/04/27 10:48:48;;;;;;;10.97;8.57;;;16.40;84.90;;;;;;5023535;28;20258;-83
2021/04/27 10:51:19;;;;;;;9.53;7.27;;;16.60;84.60;;;;;;5077610;28;20231;-83
2021/04/27 10:54:02;;;;;;;8.43;7.23;;;16.60;85.90;;;;;;5062867;28;20288;-83
2021/04/27 10:56:40;;;;;;;9.70;7.97;;;16.70;83.90;;;;;;5067443;28;20178;-83
2021/04/27 10:59:13;;;;;;;10.33;8.20;;;16.70;86.40;;;;;;5077058;28;20175;-83
2021/04/27 11:01:41;;;;;;;10.27;8.30;;;16.70;87.80;;;;;;5059309;28;20616;-83
2021/04/27 11:04:25;;;;;;;10.10;8.17;;;16.80;85.10;;;;;;5059346;28;20556;-83
2021/04/27 11:07:21;;;;;;;9.97;8.63;;;16.70;84.30;;;;;;5077609;28;20184;-82
2021/04/27 11:09:59;;;;;;;9.27;8.33;;;16.80;84.30;;;;;;5075938;28;20181;-83
2021/04/27 11:12:35;;;;;;;11.03;8.63;;;17.00;84.00;;;;;;5077245;28;20694;-83
2021/04/27 11:15:05;;;;;;;11.57;8.77;;;17.20;84.10;;;;;;5077359;28;20188;-83
2021/04/27 11:17:39;;;;;;;9.47;8.20;;;17.30;82.80;;;;;;5076314;28;20264;-83
2021/04/27 11:20:10;;;;;;;11.97;8.27;;;17.20;83.50;;;;;;5077324;28;20184;-83
2021/04/27 11:22:49;;;;;;;7.97;7.37;;;17.30;84.50;;;;;;5059356;28;20181;-83
2021/04/27 11:25:32;;;;;;;8.93;8.13;;;17.60;87.80;;;;;;5043275;28;20177;-84
2021/04/27 11:27:58;;;;;;;9.90;8.90;;;18.00;82.70;;;;;;5060374;28;20196;-82
2021/04/27 11:30:34;;;;;;;9.57;8.57;;;18.00;82.40;;;;;;5068352;28;20193;-84
2021/04/27 11:33:04;;;;;;;8.27;7.57;;;18.00;82.70;;;;;;5077523;28;20195;-82
2021/04/27 11:35:40;;;;;;;12.27;8.40;;;17.90;85.70;;;;;;5079235;28;20180;-81
2021/04/27 11:38:08;;;;;;;9.57;8.57;;;17.90;83.10;;;;;;5079265;28;20169;-84
2021/04/27 11:40:39;;;;;;;8.83;8.03;;;17.70;82.70;;;;;;5078956;28;20193;-84
2021/04/27 11:43:13;;;;;;;9.97;8.53;;;18.00;86.20;;;;;;5060749;28;20185;-84
2021/04/27 11:45:49;;;;;;;9.83;8.53;;;18.00;83.30;;;;;;5074783;28;20267;-84
2021/04/27 11:48:23;;;;;;;11.50;10.30;;;18.10;86.60;;;;;;5079082;28;20184;-84
2021/04/27 11:50:50;;;;;;;9.33;8.43;;;18.00;82.90;;;;;;5079219;28;20197;-83
2021/04/27 11:53:18;;;;;;;14.70;8.83;;;17.80;82.70;;;;;;5079225;28;20197;-84
2021/04/27 11:55:45;;;;;;;10.37;8.70;;;17.70;83.20;;;;;;5075697;28;20544;-84
2021/04/27 11:58:13;;;;;;;10.63;9.53;;;17.80;85.00;;;;;;5077000;28;20169;-84
2021/04/27 12:00:42;;;;;;;9.57;8.77;;;17.80;83.70;;;;;;5076977;28;20297;-84
2021/04/27 12:03:19;;;;;;;9.73;8.77;;;17.90;84.30;;;;;;5076843;28;20551;-83
2021/04/27 12:05:46;;;;;;;9.93;8.93;;;18.10;82.60;;;;;;5060495;28;20184;-83
2021/04/27 12:08:35;;;;;;;9.87;8.87;;;18.10;82.90;;;;;;5078761;28;20184;-84
2021/04/27 12:11:34;;;;;;;10.33;9.13;;;18.00;82.90;;;;;;5076903;28;20260;-84
2021/04/27 12:14:06;;;;;;;16.33;9.17;;;18.00;83.90;;;;;;5077338;28;20231;-84
2021/04/27 12:16:37;;;;;;;12.20;9.70;;;18.10;84.00;;;;;;5060569;28;20180;-84
2021/04/27 12:19:07;;;;;;;10.73;9.10;;;18.20;83.80;;;;;;5077332;28;20173;-84
2021/04/27 12:22:05;;;;;;;9.43;8.50;;;18.10;84.30;;;;;;5065887;28;20243;-82
2021/04/27 12:24:36;;;;;;;12.63;8.97;;;18.20;84.30;;;;;;5077267;28;20177;-82
2021/04/27 12:27:01;;;;;;;10.83;9.83;;;18.30;83.40;;;;;;5082645;28;20197;-83
2021/04/27 12:29:34;;;;;;;9.70;8.80;;;18.60;84.00;;;;;;5079511;28;20192;-83
2021/04/27 12:32:13;;;;;;;11.77;9.10;;;18.70;82.50;;;;;;5077691;28;20192;-83
2021/04/27 12:35:09;;;;;;;9.43;8.60;;;18.50;83.50;;;;;;5075923;28;20227;-83
2021/04/27 12:37:37;;;;;;;11.67;9.47;;;18.70;88.50;;;;;;5076364;28;20177;-83
2021/04/27 12:40:24;;;;;;;11.87;8.90;;;18.40;83.90;;;;;;5061674;28;20176;-83
2021/04/27 12:43:03;;;;;;;11.07;9.30;;;18.80;85.10;;;;;;5077429;28;20682;-83
2021/04/27 12:45:43;;;;;;;10.47;9.37;;;18.90;83.00;;;;;;5058542;28;20267;-83
2021/04/27 12:48:10;;;;;;;11.90;8.93;;;18.70;82.60;;;;;;5077005;28;20256;-83
2021/04/27 12:50:48;;;;;;;10.90;9.83;;;18.60;83.20;;;;;;5077085;28;20284;-83
2021/04/27 12:53:15;;;;;;;11.10;8.97;;;18.60;82.60;;;;;;5078532;28;20199;-83
2021/04/27 12:55:51;;;;;;;10.17;9.17;;;18.80;85.20;;;;;;5062054;28;20185;-82
2021/04/27 12:58:27;;;;;;;10.30;8.63;;;18.80;81.80;;;;;;5058778;28;20736;-83